Погода Пракседис-Геррерона 2 недели

Чиуауа, Мексика

15 - 27 июля
  • 15июля
    Сегодня
    +25°
    +38°
    Ясно и безоблачно
    ВремяПогодаТемператураВлажностьДавлениеВетер, м/сВероятность осадков
    00:00Ясно и безоблачно+29°C37 %674 мм3.2 м/с2 %
    03:00Ясно и безоблачно+27°C48 %673 мм2.1 м/с2 %
    06:00Ясно и безоблачно+25°C57 %673 мм2.7 м/с2 %
    09:00Ясно и безоблачно+29°C44 %674 мм2.0 м/с2 %
    12:00Ясно и безоблачно+34°C27 %674 мм0.4 м/с2 %
    15:00Ясно и безоблачно+37°C18 %672 мм2.4 м/с2 %
    18:00Ясно и безоблачно+38°C16 %670 мм2.2 м/с2 %
    21:00Практически безоблачно+34°C17 %670 мм2.5 м/с2 %
  • 16июля
    Вторник
    +25°
    +39°
    Небольшая облачность
    ВремяПогодаТемператураВлажностьДавлениеВетер, м/сВероятность осадков
    00:00Ясно и безоблачно+31°C33 %671 мм4.8 м/с2 %
    03:00Ясно и безоблачно+28°C43 %671 мм2.2 м/с2 %
    06:00Небольшая облачность+25°C53 %670 мм1.9 м/с2 %
    09:00Ясно и безоблачно+30°C39 %672 мм1.7 м/с2 %
    12:00Небольшая облачность+35°C25 %673 мм0.6 м/с2 %
    15:00Небольшая облачность+38°C15 %671 мм2.8 м/с2 %
    18:00Небольшая облачность+39°C14 %669 мм1.8 м/с2 %
    21:00Небольшая облачность+34°C14 %669 мм2.8 м/с2 %
  • 17июля
    Среда
    +26°
    +39°
    Небольшая облачность
    ВремяПогодаТемператураВлажностьДавлениеВетер, м/сВероятность осадков
    00:00Облачно с прояснениями+32°C21 %670 мм4.1 м/с2 %
    03:00Практически безоблачно+29°C42 %671 мм4.3 м/с2 %
    06:00Небольшая облачность+26°C51 %670 мм4.0 м/с2 %
    09:00Облачно с прояснениями+29°C43 %673 мм3.9 м/с2 %
    12:00Небольшая облачность+36°C25 %673 мм3.8 м/с7 %
    15:00Небольшая облачность+37°C20 %672 мм1.0 м/с11 %
    18:00Облачно с прояснениями+38°C15 %671 мм6.3 м/с5 %
    21:00Облачно с прояснениями+34°C17 %671 мм4.9 м/с4 %
  • 18июля
    Четверг
    +24°
    +37°
    Практически безоблачно
    ВремяПогодаТемператураВлажностьДавлениеВетер, м/сВероятность осадков
    00:00Небольшая облачность+32°C22 %672 мм5.9 м/с9 %
    03:00Практически безоблачно+29°C34 %673 мм5.4 м/с8 %
    06:00Ясно и безоблачно+26°C44 %673 мм3.3 м/с4 %
    09:00Ясно и безоблачно+29°C36 %675 мм4.7 м/с2 %
    12:00Ясно и безоблачно+33°C27 %675 мм3.3 м/с12 %
    15:00Практически безоблачно+36°C19 %673 мм2.6 м/с14 %
    18:00Практически безоблачно+36°C17 %672 мм6.2 м/с27 %
    21:00Облачно с прояснениями+32°C23 %672 мм6.6 м/с14 %
Мы используем cookies
Соглашаюсь